sensor_id;sensor_type;location;lat;lon;timestamp;P1;durP1;ratioP1;P2;durP2;ratioP2
36415;SDS011;22447;44.530;18.620;2022-08-21T00:01:03;17.23;;;10.35;;
36415;SDS011;22447;44.530;18.620;2022-08-21T00:03:31;14.93;;;7.45;;
36415;SDS011;22447;44.530;18.620;2022-08-21T00:05:58;9.95;;;6.20;;
36415;SDS011;22447;44.530;18.620;2022-08-21T00:08:24;10.18;;;5.22;;
36415;SDS011;22447;44.530;18.620;2022-08-21T00:10:50;12.82;;;5.35;;
36415;SDS011;22447;44.530;18.620;2022-08-21T00:13:16;12.80;;;6.38;;
36415;SDS011;22447;44.530;18.620;2022-08-21T00:15:45;12.18;;;5.45;;
36415;SDS011;22447;44.530;18.620;2022-08-21T00:18:12;9.60;;;5.35;;
36415;SDS011;22447;44.530;18.620;2022-08-21T00:20:39;6.80;;;4.50;;
36415;SDS011;22447;44.530;18.620;2022-08-21T00:23:06;12.70;;;5.18;;
36415;SDS011;22447;44.530;18.620;2022-08-21T00:25:33;10.82;;;4.90;;
36415;SDS011;22447;44.530;18.620;2022-08-21T00:27:59;11.18;;;4.93;;
36415;SDS011;22447;44.530;18.620;2022-08-21T00:30:27;11.05;;;4.40;;
36415;SDS011;22447;44.530;18.620;2022-08-21T00:32:54;10.90;;;4.80;;
36415;SDS011;22447;44.530;18.620;2022-08-21T00:35:23;12.18;;;4.57;;
36415;SDS011;22447;44.530;18.620;2022-08-21T00:37:51;11.25;;;5.07;;
36415;SDS011;22447;44.530;18.620;2022-08-21T00:40:19;7.57;;;4.22;;
36415;SDS011;22447;44.530;18.620;2022-08-21T00:42:47;11.48;;;5.28;;
36415;SDS011;22447;44.530;18.620;2022-08-21T00:45:15;10.55;;;4.55;;
36415;SDS011;22447;44.530;18.620;2022-08-21T00:47:41;14.77;;;5.13;;
36415;SDS011;22447;44.530;18.620;2022-08-21T00:50:07;12.73;;;5.35;;
36415;SDS011;22447;44.530;18.620;2022-08-21T00:52:35;15.60;;;5.00;;
36415;SDS011;22447;44.530;18.620;2022-08-21T00:55:02;12.18;;;4.90;;
36415;SDS011;22447;44.530;18.620;2022-08-21T00:57:32;10.32;;;4.90;;
36415;SDS011;22447;44.530;18.620;2022-08-21T01:00:06;15.25;;;6.13;;
36415;SDS011;22447;44.530;18.620;2022-08-21T01:02:34;16.83;;;6.72;;
36415;SDS011;22447;44.530;18.620;2022-08-21T01:05:01;11.95;;;5.97;;
36415;SDS011;22447;44.530;18.620;2022-08-21T01:07:27;13.57;;;6.68;;
36415;SDS011;22447;44.530;18.620;2022-08-21T01:09:53;15.82;;;7.13;;
36415;SDS011;22447;44.530;18.620;2022-08-21T01:12:19;16.40;;;7.18;;
36415;SDS011;22447;44.530;18.620;2022-08-21T01:14:45;21.27;;;7.55;;
36415;SDS011;22447;44.530;18.620;2022-08-21T01:17:12;20.42;;;9.70;;
36415;SDS011;22447;44.530;18.620;2022-08-21T01:19:39;24.83;;;11.98;;
36415;SDS011;22447;44.530;18.620;2022-08-21T01:22:05;23.33;;;10.45;;
36415;SDS011;22447;44.530;18.620;2022-08-21T01:24:32;20.70;;;9.68;;
36415;SDS011;22447;44.530;18.620;2022-08-21T01:26:58;20.42;;;9.07;;
36415;SDS011;22447;44.530;18.620;2022-08-21T01:29:30;21.45;;;10.93;;
36415;SDS011;22447;44.530;18.620;2022-08-21T01:32:05;39.22;;;18.23;;
36415;SDS011;22447;44.530;18.620;2022-08-21T01:34:33;34.70;;;16.87;;
36415;SDS011;22447;44.530;18.620;2022-08-21T01:37:01;42.88;;;19.77;;
36415;SDS011;22447;44.530;18.620;2022-08-21T01:39:28;32.72;;;16.00;;
36415;SDS011;22447;44.530;18.620;2022-08-21T01:41:54;42.55;;;21.63;;
36415;SDS011;22447;44.530;18.620;2022-08-21T01:44:24;50.47;;;25.50;;
36415;SDS011;22447;44.530;18.620;2022-08-21T01:46:51;45.50;;;22.92;;
36415;SDS011;22447;44.530;18.620;2022-08-21T01:49:17;47.90;;;24.02;;
36415;SDS011;22447;44.530;18.620;2022-08-21T01:51:44;42.35;;;22.20;;
36415;SDS011;22447;44.530;18.620;2022-08-21T01:54:10;42.75;;;21.98;;
36415;SDS011;22447;44.530;18.620;2022-08-21T01:56:38;40.70;;;20.13;;
36415;SDS011;22447;44.530;18.620;2022-08-21T01:59:08;42.10;;;21.23;;
36415;SDS011;22447;44.530;18.620;2022-08-21T02:01:35;38.15;;;19.38;;
36415;SDS011;22447;44.530;18.620;2022-08-21T02:04:02;38.80;;;20.00;;
36415;SDS011;22447;44.530;18.620;2022-08-21T02:06:28;47.28;;;23.20;;
36415;SDS011;22447;44.530;18.620;2022-08-21T02:08:54;55.22;;;23.08;;
36415;SDS011;22447;44.530;18.620;2022-08-21T02:11:20;62.70;;;25.67;;
36415;SDS011;22447;44.530;18.620;2022-08-21T02:13:46;75.03;;;29.80;;
36415;SDS011;22447;44.530;18.620;2022-08-21T02:16:12;67.93;;;30.70;;
36415;SDS011;22447;44.530;18.620;2022-08-21T02:18:38;63.33;;;28.40;;
36415;SDS011;22447;44.530;18.620;2022-08-21T02:21:05;63.90;;;28.05;;
36415;SDS011;22447;44.530;18.620;2022-08-21T02:23:31;52.25;;;24.17;;
36415;SDS011;22447;44.530;18.620;2022-08-21T02:25:58;52.85;;;24.40;;
36415;SDS011;22447;44.530;18.620;2022-08-21T02:28:26;45.13;;;22.58;;
36415;SDS011;22447;44.530;18.620;2022-08-21T02:30:52;36.83;;;19.10;;
36415;SDS011;22447;44.530;18.620;2022-08-21T02:33:19;36.97;;;18.17;;
36415;SDS011;22447;44.530;18.620;2022-08-21T02:35:46;33.35;;;15.88;;
36415;SDS011;22447;44.530;18.620;2022-08-21T02:38:14;34.40;;;18.75;;
36415;SDS011;22447;44.530;18.620;2022-08-21T02:40:43;34.33;;;17.77;;
36415;SDS011;22447;44.530;18.620;2022-08-21T02:43:12;24.77;;;12.63;;
36415;SDS011;22447;44.530;18.620;2022-08-21T02:45:38;33.38;;;15.25;;
36415;SDS011;22447;44.530;18.620;2022-08-21T02:48:06;25.67;;;14.20;;
36415;SDS011;22447;44.530;18.620;2022-08-21T02:50:36;19.85;;;11.85;;
36415;SDS011;22447;44.530;18.620;2022-08-21T02:53:07;17.52;;;9.95;;
36415;SDS011;22447;44.530;18.620;2022-08-21T02:55:35;17.70;;;11.13;;
36415;SDS011;22447;44.530;18.620;2022-08-21T02:58:03;16.83;;;10.10;;
36415;SDS011;22447;44.530;18.620;2022-08-21T03:00:32;12.93;;;9.75;;
36415;SDS011;22447;44.530;18.620;2022-08-21T03:02:59;18.25;;;8.80;;
36415;SDS011;22447;44.530;18.620;2022-08-21T03:05:26;15.55;;;8.85;;
36415;SDS011;22447;44.530;18.620;2022-08-21T03:07:54;13.13;;;8.13;;
36415;SDS011;22447;44.530;18.620;2022-08-21T03:10:20;12.40;;;8.07;;
36415;SDS011;22447;44.530;18.620;2022-08-21T03:12:47;11.05;;;7.15;;
36415;SDS011;22447;44.530;18.620;2022-08-21T03:15:15;13.70;;;7.18;;
36415;SDS011;22447;44.530;18.620;2022-08-21T03:17:44;9.43;;;6.47;;
36415;SDS011;22447;44.530;18.620;2022-08-21T03:20:11;14.23;;;7.20;;
36415;SDS011;22447;44.530;18.620;2022-08-21T03:22:38;8.43;;;6.15;;
36415;SDS011;22447;44.530;18.620;2022-08-21T03:25:04;13.80;;;6.78;;
36415;SDS011;22447;44.530;18.620;2022-08-21T03:27:31;9.07;;;6.38;;
36415;SDS011;22447;44.530;18.620;2022-08-21T03:29:59;9.60;;;6.57;;
36415;SDS011;22447;44.530;18.620;2022-08-21T03:32:25;8.77;;;6.00;;
36415;SDS011;22447;44.530;18.620;2022-08-21T03:34:52;10.00;;;6.05;;
36415;SDS011;22447;44.530;18.620;2022-08-21T03:37:18;8.48;;;5.88;;
36415;SDS011;22447;44.530;18.620;2022-08-21T03:39:44;10.23;;;6.50;;
36415;SDS011;22447;44.530;18.620;2022-08-21T03:42:10;10.85;;;5.60;;
36415;SDS011;22447;44.530;18.620;2022-08-21T03:44:37;9.50;;;6.25;;
36415;SDS011;22447;44.530;18.620;2022-08-21T03:47:04;8.23;;;6.30;;
36415;SDS011;22447;44.530;18.620;2022-08-21T03:49:30;9.05;;;6.28;;
36415;SDS011;22447;44.530;18.620;2022-08-21T03:51:56;13.73;;;6.97;;
36415;SDS011;22447;44.530;18.620;2022-08-21T03:54:22;9.68;;;6.28;;
36415;SDS011;22447;44.530;18.620;2022-08-21T03:56:48;13.65;;;7.75;;
36415;SDS011;22447;44.530;18.620;2022-08-21T03:59:14;11.32;;;7.75;;
36415;SDS011;22447;44.530;18.620;2022-08-21T04:01:50;13.18;;;7.93;;
36415;SDS011;22447;44.530;18.620;2022-08-21T04:04:21;12.45;;;7.65;;
36415;SDS011;22447;44.530;18.620;2022-08-21T04:06:47;13.90;;;8.40;;
36415;SDS011;22447;44.530;18.620;2022-08-21T04:09:13;15.05;;;7.40;;
36415;SDS011;22447;44.530;18.620;2022-08-21T04:11:39;11.70;;;6.47;;
36415;SDS011;22447;44.530;18.620;2022-08-21T04:14:05;13.13;;;7.90;;
36415;SDS011;22447;44.530;18.620;2022-08-21T04:16:30;13.13;;;6.82;;
36415;SDS011;22447;44.530;18.620;2022-08-21T04:18:56;10.77;;;6.95;;
36415;SDS011;22447;44.530;18.620;2022-08-21T04:21:22;9.27;;;6.20;;
36415;SDS011;22447;44.530;18.620;2022-08-21T04:23:48;7.30;;;5.45;;
36415;SDS011;22447;44.530;18.620;2022-08-21T04:26:15;10.40;;;5.97;;
36415;SDS011;22447;44.530;18.620;2022-08-21T04:28:41;10.25;;;5.72;;
36415;SDS011;22447;44.530;18.620;2022-08-21T04:31:07;6.30;;;4.75;;
36415;SDS011;22447;44.530;18.620;2022-08-21T04:33:34;6.43;;;3.80;;
36415;SDS011;22447;44.530;18.620;2022-08-21T04:36:00;6.95;;;4.28;;
36415;SDS011;22447;44.530;18.620;2022-08-21T04:38:26;6.03;;;4.03;;
36415;SDS011;22447;44.530;18.620;2022-08-21T04:40:52;7.18;;;3.95;;
36415;SDS011;22447;44.530;18.620;2022-08-21T04:43:19;7.82;;;3.47;;
36415;SDS011;22447;44.530;18.620;2022-08-21T04:45:48;5.65;;;3.22;;
36415;SDS011;22447;44.530;18.620;2022-08-21T04:48:16;6.35;;;4.15;;
36415;SDS011;22447;44.530;18.620;2022-08-21T04:50:54;4.38;;;3.25;;
36415;SDS011;22447;44.530;18.620;2022-08-21T04:56:07;4.45;;;2.90;;
36415;SDS011;22447;44.530;18.620;2022-08-21T04:58:39;3.72;;;2.72;;
36415;SDS011;22447;44.530;18.620;2022-08-21T05:01:08;4.97;;;2.70;;
36415;SDS011;22447;44.530;18.620;2022-08-21T05:03:38;5.93;;;2.63;;
36415;SDS011;22447;44.530;18.620;2022-08-21T05:06:07;4.95;;;2.85;;
36415;SDS011;22447;44.530;18.620;2022-08-21T05:08:35;3.83;;;2.70;;
36415;SDS011;22447;44.530;18.620;2022-08-21T05:11:03;5.88;;;2.58;;
36415;SDS011;22447;44.530;18.620;2022-08-21T05:13:29;3.22;;;2.13;;
36415;SDS011;22447;44.530;18.620;2022-08-21T05:15:56;5.72;;;2.47;;
36415;SDS011;22447;44.530;18.620;2022-08-21T05:18:22;6.15;;;2.90;;
36415;SDS011;22447;44.530;18.620;2022-08-21T05:20:48;3.92;;;2.10;;
36415;SDS011;22447;44.530;18.620;2022-08-21T05:23:15;3.17;;;2.03;;
36415;SDS011;22447;44.530;18.620;2022-08-21T05:25:42;2.65;;;1.80;;
36415;SDS011;22447;44.530;18.620;2022-08-21T05:28:08;4.93;;;2.13;;
36415;SDS011;22447;44.530;18.620;2022-08-21T05:30:36;3.45;;;2.30;;
36415;SDS011;22447;44.530;18.620;2022-08-21T05:33:03;3.67;;;1.95;;
36415;SDS011;22447;44.530;18.620;2022-08-21T05:35:31;3.83;;;1.92;;
36415;SDS011;22447;44.530;18.620;2022-08-21T05:37:58;3.05;;;2.05;;
36415;SDS011;22447;44.530;18.620;2022-08-21T05:40:25;2.88;;;1.80;;
36415;SDS011;22447;44.530;18.620;2022-08-21T05:42:52;7.75;;;2.80;;
36415;SDS011;22447;44.530;18.620;2022-08-21T05:45:19;4.80;;;2.17;;
36415;SDS011;22447;44.530;18.620;2022-08-21T05:47:45;4.50;;;1.98;;
36415;SDS011;22447;44.530;18.620;2022-08-21T05:50:11;4.85;;;1.70;;
36415;SDS011;22447;44.530;18.620;2022-08-21T05:52:37;2.78;;;1.58;;
36415;SDS011;22447;44.530;18.620;2022-08-21T05:55:03;4.30;;;1.83;;
36415;SDS011;22447;44.530;18.620;2022-08-21T05:57:29;2.25;;;1.30;;
36415;SDS011;22447;44.530;18.620;2022-08-21T05:59:55;3.13;;;1.80;;
36415;SDS011;22447;44.530;18.620;2022-08-21T06:02:21;9.15;;;1.98;;
36415;SDS011;22447;44.530;18.620;2022-08-21T06:04:47;3.15;;;1.95;;
36415;SDS011;22447;44.530;18.620;2022-08-21T06:07:13;2.70;;;1.83;;
36415;SDS011;22447;44.530;18.620;2022-08-21T06:09:40;3.35;;;1.50;;
36415;SDS011;22447;44.530;18.620;2022-08-21T06:12:07;2.45;;;1.58;;
36415;SDS011;22447;44.530;18.620;2022-08-21T06:14:34;2.72;;;1.48;;
36415;SDS011;22447;44.530;18.620;2022-08-21T06:17:01;2.28;;;1.15;;
36415;SDS011;22447;44.530;18.620;2022-08-21T06:19:32;2.88;;;1.75;;
36415;SDS011;22447;44.530;18.620;2022-08-21T06:21:58;2.88;;;1.10;;
36415;SDS011;22447;44.530;18.620;2022-08-21T06:24:24;1.73;;;0.93;;
36415;SDS011;22447;44.530;18.620;2022-08-21T06:26:50;2.33;;;1.33;;
36415;SDS011;22447;44.530;18.620;2022-08-21T06:29:16;2.08;;;1.20;;
36415;SDS011;22447;44.530;18.620;2022-08-21T06:31:43;1.60;;;1.02;;
36415;SDS011;22447;44.530;18.620;2022-08-21T06:34:09;8.60;;;3.47;;
36415;SDS011;22447;44.530;18.620;2022-08-21T06:36:36;2.70;;;1.15;;
36415;SDS011;22447;44.530;18.620;2022-08-21T06:39:02;2.28;;;1.10;;
36415;SDS011;22447;44.530;18.620;2022-08-21T06:41:28;4.13;;;1.40;;
36415;SDS011;22447;44.530;18.620;2022-08-21T06:43:54;2.63;;;1.08;;
36415;SDS011;22447;44.530;18.620;2022-08-21T06:46:21;1.02;;;0.88;;
36415;SDS011;22447;44.530;18.620;2022-08-21T06:48:48;1.65;;;0.85;;
36415;SDS011;22447;44.530;18.620;2022-08-21T06:51:14;4.20;;;1.40;;
36415;SDS011;22447;44.530;18.620;2022-08-21T06:53:40;1.65;;;1.02;;
36415;SDS011;22447;44.530;18.620;2022-08-21T06:56:07;2.10;;;1.40;;
36415;SDS011;22447;44.530;18.620;2022-08-21T06:58:33;1.80;;;1.30;;
36415;SDS011;22447;44.530;18.620;2022-08-21T07:00:59;1.90;;;1.10;;
36415;SDS011;22447;44.530;18.620;2022-08-21T07:03:32;1.80;;;0.82;;
36415;SDS011;22447;44.530;18.620;2022-08-21T07:06:02;3.97;;;1.83;;
36415;SDS011;22447;44.530;18.620;2022-08-21T07:08:29;3.75;;;1.75;;
36415;SDS011;22447;44.530;18.620;2022-08-21T07:10:56;2.20;;;1.17;;
36415;SDS011;22447;44.530;18.620;2022-08-21T07:13:24;3.97;;;1.33;;
36415;SDS011;22447;44.530;18.620;2022-08-21T07:15:50;2.65;;;1.40;;
36415;SDS011;22447;44.530;18.620;2022-08-21T07:18:16;5.00;;;1.38;;
36415;SDS011;22447;44.530;18.620;2022-08-21T07:20:42;2.33;;;1.58;;
36415;SDS011;22447;44.530;18.620;2022-08-21T07:23:10;1.83;;;1.23;;
36415;SDS011;22447;44.530;18.620;2022-08-21T07:26:09;2.60;;;1.17;;
36415;SDS011;22447;44.530;18.620;2022-08-21T07:28:36;2.45;;;1.30;;
36415;SDS011;22447;44.530;18.620;2022-08-21T07:31:02;1.25;;;1.15;;
36415;SDS011;22447;44.530;18.620;2022-08-21T07:33:29;3.33;;;1.48;;
36415;SDS011;22447;44.530;18.620;2022-08-21T07:35:57;2.63;;;1.73;;
36415;SDS011;22447;44.530;18.620;2022-08-21T07:38:23;3.08;;;1.88;;
36415;SDS011;22447;44.530;18.620;2022-08-21T07:40:51;4.85;;;1.45;;
36415;SDS011;22447;44.530;18.620;2022-08-21T07:43:19;2.83;;;2.28;;
36415;SDS011;22447;44.530;18.620;2022-08-21T07:45:46;4.53;;;2.28;;
36415;SDS011;22447;44.530;18.620;2022-08-21T07:48:14;4.15;;;2.20;;
36415;SDS011;22447;44.530;18.620;2022-08-21T07:50:41;4.57;;;2.85;;
36415;SDS011;22447;44.530;18.620;2022-08-21T07:53:08;7.40;;;2.45;;
36415;SDS011;22447;44.530;18.620;2022-08-21T07:55:34;4.97;;;2.88;;
36415;SDS011;22447;44.530;18.620;2022-08-21T07:58:00;5.38;;;2.63;;
36415;SDS011;22447;44.530;18.620;2022-08-21T08:00:27;4.40;;;2.95;;
36415;SDS011;22447;44.530;18.620;2022-08-21T08:02:54;8.95;;;3.95;;
36415;SDS011;22447;44.530;18.620;2022-08-21T08:05:22;6.35;;;3.67;;
36415;SDS011;22447;44.530;18.620;2022-08-21T08:07:50;7.73;;;3.83;;
36415;SDS011;22447;44.530;18.620;2022-08-21T08:10:16;7.70;;;3.70;;
36415;SDS011;22447;44.530;18.620;2022-08-21T08:12:42;5.80;;;3.20;;
36415;SDS011;22447;44.530;18.620;2022-08-21T08:15:11;3.72;;;3.20;;
36415;SDS011;22447;44.530;18.620;2022-08-21T08:17:40;9.40;;;4.32;;
36415;SDS011;22447;44.530;18.620;2022-08-21T08:20:06;7.57;;;4.32;;
36415;SDS011;22447;44.530;18.620;2022-08-21T08:22:35;7.28;;;4.45;;
36415;SDS011;22447;44.530;18.620;2022-08-21T08:25:03;9.10;;;3.80;;
36415;SDS011;22447;44.530;18.620;2022-08-21T08:27:30;5.85;;;3.88;;
36415;SDS011;22447;44.530;18.620;2022-08-21T08:29:56;6.00;;;3.55;;
36415;SDS011;22447;44.530;18.620;2022-08-21T08:32:22;6.82;;;4.45;;
36415;SDS011;22447;44.530;18.620;2022-08-21T08:34:49;6.18;;;3.45;;
36415;SDS011;22447;44.530;18.620;2022-08-21T08:37:17;5.85;;;4.18;;
36415;SDS011;22447;44.530;18.620;2022-08-21T08:39:44;7.20;;;4.07;;
36415;SDS011;22447;44.530;18.620;2022-08-21T08:42:12;8.65;;;4.32;;
36415;SDS011;22447;44.530;18.620;2022-08-21T08:44:55;8.55;;;3.70;;
36415;SDS011;22447;44.530;18.620;2022-08-21T08:47:32;7.82;;;4.15;;
36415;SDS011;22447;44.530;18.620;2022-08-21T08:50:04;10.95;;;4.72;;
36415;SDS011;22447;44.530;18.620;2022-08-21T08:52:32;7.55;;;3.53;;
36415;SDS011;22447;44.530;18.620;2022-08-21T08:57:38;4.97;;;3.63;;
36415;SDS011;22447;44.530;18.620;2022-08-21T09:00:08;7.30;;;3.80;;
36415;SDS011;22447;44.530;18.620;2022-08-21T09:05:05;6.53;;;3.85;;
36415;SDS011;22447;44.530;18.620;2022-08-21T09:10:18;5.82;;;3.85;;
36415;SDS011;22447;44.530;18.620;2022-08-21T09:13:07;6.20;;;4.35;;
36415;SDS011;22447;44.530;18.620;2022-08-21T09:15:54;8.32;;;4.50;;
36415;SDS011;22447;44.530;18.620;2022-08-21T09:18:33;7.30;;;3.75;;
36415;SDS011;22447;44.530;18.620;2022-08-21T09:23:55;6.32;;;4.50;;
36415;SDS011;22447;44.530;18.620;2022-08-21T09:26:29;9.20;;;4.95;;
36415;SDS011;22447;44.530;18.620;2022-08-21T09:29:01;8.75;;;3.53;;
36415;SDS011;22447;44.530;18.620;2022-08-21T09:31:29;7.45;;;3.75;;
36415;SDS011;22447;44.530;18.620;2022-08-21T09:33:58;7.30;;;4.35;;
36415;SDS011;22447;44.530;18.620;2022-08-21T09:36:38;10.50;;;4.15;;
36415;SDS011;22447;44.530;18.620;2022-08-21T09:39:10;8.48;;;3.90;;
36415;SDS011;22447;44.530;18.620;2022-08-21T09:41:49;6.47;;;3.70;;
36415;SDS011;22447;44.530;18.620;2022-08-21T09:44:30;8.60;;;4.60;;
36415;SDS011;22447;44.530;18.620;2022-08-21T09:46:58;9.35;;;4.03;;
36415;SDS011;22447;44.530;18.620;2022-08-21T09:49:29;8.13;;;4.20;;
36415;SDS011;22447;44.530;18.620;2022-08-21T09:51:59;8.65;;;4.07;;
36415;SDS011;22447;44.530;18.620;2022-08-21T09:54:31;6.13;;;4.18;;
36415;SDS011;22447;44.530;18.620;2022-08-21T09:57:01;11.40;;;4.70;;
36415;SDS011;22447;44.530;18.620;2022-08-21T09:59:52;4.40;;;3.05;;
36415;SDS011;22447;44.530;18.620;2022-08-21T10:02:21;6.07;;;3.00;;
36415;SDS011;22447;44.530;18.620;2022-08-21T10:04:52;8.45;;;3.88;;
36415;SDS011;22447;44.530;18.620;2022-08-21T10:07:23;9.93;;;4.70;;
36415;SDS011;22447;44.530;18.620;2022-08-21T10:10:02;5.93;;;4.35;;
36415;SDS011;22447;44.530;18.620;2022-08-21T10:15:18;6.63;;;3.20;;
36415;SDS011;22447;44.530;18.620;2022-08-21T10:18:57;10.52;;;3.70;;
36415;SDS011;22447;44.530;18.620;2022-08-21T10:26:55;4.82;;;2.72;;
36415;SDS011;22447;44.530;18.620;2022-08-21T10:34:49;5.82;;;2.92;;
36415;SDS011;22447;44.530;18.620;2022-08-21T10:43:54;4.50;;;3.22;;
36415;SDS011;22447;44.530;18.620;2022-08-21T10:57:33;7.07;;;3.42;;
36415;SDS011;22447;44.530;18.620;2022-08-21T11:00:20;8.75;;;3.40;;
36415;SDS011;22447;44.530;18.620;2022-08-21T11:06:09;8.02;;;3.70;;
36415;SDS011;22447;44.530;18.620;2022-08-21T11:08:44;4.32;;;2.83;;
36415;SDS011;22447;44.530;18.620;2022-08-21T11:11:24;6.40;;;3.10;;
36415;SDS011;22447;44.530;18.620;2022-08-21T11:13:55;4.97;;;3.00;;
36415;SDS011;22447;44.530;18.620;2022-08-21T11:16:43;9.90;;;3.88;;
36415;SDS011;22447;44.530;18.620;2022-08-21T11:19:48;6.05;;;3.25;;
36415;SDS011;22447;44.530;18.620;2022-08-21T11:22:21;4.20;;;2.42;;
36415;SDS011;22447;44.530;18.620;2022-08-21T11:25:11;9.45;;;3.05;;
36415;SDS011;22447;44.530;18.620;2022-08-21T11:27:43;4.72;;;2.92;;
36415;SDS011;22447;44.530;18.620;2022-08-21T11:30:14;5.22;;;2.80;;
36415;SDS011;22447;44.530;18.620;2022-08-21T11:32:50;3.47;;;3.08;;
36415;SDS011;22447;44.530;18.620;2022-08-21T11:43:00;4.22;;;2.45;;
36415;SDS011;22447;44.530;18.620;2022-08-21T11:45:33;3.85;;;2.50;;
36415;SDS011;22447;44.530;18.620;2022-08-21T11:50:48;4.05;;;2.17;;
36415;SDS011;22447;44.530;18.620;2022-08-21T11:55:55;5.68;;;3.10;;
36415;SDS011;22447;44.530;18.620;2022-08-21T12:01:08;3.50;;;2.25;;
36415;SDS011;22447;44.530;18.620;2022-08-21T12:03:36;4.35;;;2.70;;
36415;SDS011;22447;44.530;18.620;2022-08-21T12:06:09;3.30;;;2.30;;
36415;SDS011;22447;44.530;18.620;2022-08-21T12:08:38;5.15;;;3.05;;
36415;SDS011;22447;44.530;18.620;2022-08-21T12:13:53;7.30;;;2.75;;
36415;SDS011;22447;44.530;18.620;2022-08-21T12:16:39;4.03;;;3.28;;
36415;SDS011;22447;44.530;18.620;2022-08-21T12:19:08;8.52;;;4.10;;
36415;SDS011;22447;44.530;18.620;2022-08-21T12:29:50;5.32;;;2.63;;
36415;SDS011;22447;44.530;18.620;2022-08-21T12:32:27;4.55;;;2.70;;
36415;SDS011;22447;44.530;18.620;2022-08-21T12:34:57;5.80;;;3.67;;
36415;SDS011;22447;44.530;18.620;2022-08-21T12:40:39;9.77;;;5.15;;
36415;SDS011;22447;44.530;18.620;2022-08-21T12:43:13;9.32;;;5.78;;
36415;SDS011;22447;44.530;18.620;2022-08-21T12:45:49;7.82;;;5.68;;
36415;SDS011;22447;44.530;18.620;2022-08-21T12:51:17;8.90;;;5.88;;
36415;SDS011;22447;44.530;18.620;2022-08-21T12:54:25;7.43;;;5.90;;
36415;SDS011;22447;44.530;18.620;2022-08-21T12:56:59;8.13;;;5.85;;
36415;SDS011;22447;44.530;18.620;2022-08-21T12:59:30;7.68;;;6.22;;
36415;SDS011;22447;44.530;18.620;2022-08-21T13:01:58;9.57;;;7.63;;
36415;SDS011;22447;44.530;18.620;2022-08-21T13:04:34;11.75;;;6.88;;
36415;SDS011;22447;44.530;18.620;2022-08-21T13:07:05;12.82;;;7.65;;
36415;SDS011;22447;44.530;18.620;2022-08-21T13:10:22;13.85;;;7.82;;
36415;SDS011;22447;44.530;18.620;2022-08-21T13:12:30;16.00;;;8.27;;
36415;SDS011;22447;44.530;18.620;2022-08-21T13:14:58;12.60;;;8.40;;
36415;SDS011;22447;44.530;18.620;2022-08-21T13:17:30;12.05;;;8.63;;
36415;SDS011;22447;44.530;18.620;2022-08-21T13:20:00;14.43;;;8.95;;
36415;SDS011;22447;44.530;18.620;2022-08-21T13:22:39;13.25;;;8.63;;
36415;SDS011;22447;44.530;18.620;2022-08-21T13:25:11;18.25;;;8.65;;
36415;SDS011;22447;44.530;18.620;2022-08-21T13:27:38;13.07;;;8.60;;
36415;SDS011;22447;44.530;18.620;2022-08-21T13:30:17;9.98;;;7.43;;
36415;SDS011;22447;44.530;18.620;2022-08-21T13:32:46;13.40;;;7.55;;
36415;SDS011;22447;44.530;18.620;2022-08-21T13:35:20;11.70;;;6.95;;
36415;SDS011;22447;44.530;18.620;2022-08-21T13:37:50;11.38;;;7.43;;
36415;SDS011;22447;44.530;18.620;2022-08-21T13:43:26;9.85;;;6.65;;
36415;SDS011;22447;44.530;18.620;2022-08-21T13:45:56;9.57;;;6.63;;
36415;SDS011;22447;44.530;18.620;2022-08-21T13:48:25;10.43;;;6.22;;
36415;SDS011;22447;44.530;18.620;2022-08-21T13:50:55;7.05;;;4.63;;
36415;SDS011;22447;44.530;18.620;2022-08-21T13:53:35;9.43;;;4.53;;
36415;SDS011;22447;44.530;18.620;2022-08-21T13:56:07;5.53;;;4.25;;
36415;SDS011;22447;44.530;18.620;2022-08-21T13:58:41;7.60;;;3.72;;
36415;SDS011;22447;44.530;18.620;2022-08-21T14:03:58;7.07;;;4.28;;
36415;SDS011;22447;44.530;18.620;2022-08-21T14:06:34;7.72;;;4.43;;
36415;SDS011;22447;44.530;18.620;2022-08-21T14:09:12;10.15;;;4.53;;
36415;SDS011;22447;44.530;18.620;2022-08-21T14:11:47;13.18;;;4.45;;
36415;SDS011;22447;44.530;18.620;2022-08-21T14:16:54;5.40;;;4.32;;
36415;SDS011;22447;44.530;18.620;2022-08-21T14:19:26;7.80;;;5.00;;
36415;SDS011;22447;44.530;18.620;2022-08-21T14:22:22;9.60;;;5.82;;
36415;SDS011;22447;44.530;18.620;2022-08-21T14:27:28;10.82;;;5.53;;
36415;SDS011;22447;44.530;18.620;2022-08-21T14:33:00;7.25;;;5.80;;
36415;SDS011;22447;44.530;18.620;2022-08-21T14:35:27;8.55;;;5.90;;
36415;SDS011;22447;44.530;18.620;2022-08-21T14:37:53;9.93;;;5.80;;
36415;SDS011;22447;44.530;18.620;2022-08-21T14:40:20;9.57;;;6.30;;
36415;SDS011;22447;44.530;18.620;2022-08-21T14:42:47;10.15;;;6.43;;
36415;SDS011;22447;44.530;18.620;2022-08-21T14:45:17;15.07;;;6.72;;
36415;SDS011;22447;44.530;18.620;2022-08-21T14:47:46;7.97;;;6.68;;
36415;SDS011;22447;44.530;18.620;2022-08-21T14:50:13;9.75;;;6.53;;
36415;SDS011;22447;44.530;18.620;2022-08-21T14:52:39;9.95;;;6.38;;
36415;SDS011;22447;44.530;18.620;2022-08-21T14:55:06;11.65;;;6.32;;
36415;SDS011;22447;44.530;18.620;2022-08-21T14:57:36;10.85;;;6.68;;
36415;SDS011;22447;44.530;18.620;2022-08-21T15:00:03;8.40;;;6.43;;
36415;SDS011;22447;44.530;18.620;2022-08-21T15:02:30;10.73;;;6.65;;
36415;SDS011;22447;44.530;18.620;2022-08-21T15:04:56;12.82;;;6.72;;
36415;SDS011;22447;44.530;18.620;2022-08-21T15:07:22;11.57;;;6.95;;
36415;SDS011;22447;44.530;18.620;2022-08-21T15:09:48;12.43;;;7.03;;
36415;SDS011;22447;44.530;18.620;2022-08-21T15:12:14;11.07;;;7.05;;
36415;SDS011;22447;44.530;18.620;2022-08-21T15:14:40;10.13;;;6.13;;
36415;SDS011;22447;44.530;18.620;2022-08-21T15:17:07;11.55;;;6.72;;
36415;SDS011;22447;44.530;18.620;2022-08-21T15:19:34;12.15;;;7.55;;
36415;SDS011;22447;44.530;18.620;2022-08-21T15:22:01;10.73;;;7.43;;
36415;SDS011;22447;44.530;18.620;2022-08-21T15:24:26;9.07;;;7.32;;
36415;SDS011;22447;44.530;18.620;2022-08-21T15:26:53;8.73;;;6.72;;
36415;SDS011;22447;44.530;18.620;2022-08-21T15:29:20;11.77;;;6.95;;
36415;SDS011;22447;44.530;18.620;2022-08-21T15:34:48;10.88;;;7.13;;
36415;SDS011;22447;44.530;18.620;2022-08-21T15:37:15;13.52;;;7.43;;
36415;SDS011;22447;44.530;18.620;2022-08-21T15:39:41;12.85;;;7.68;;
36415;SDS011;22447;44.530;18.620;2022-08-21T15:42:07;12.77;;;6.50;;
36415;SDS011;22447;44.530;18.620;2022-08-21T15:44:35;10.70;;;7.03;;
36415;SDS011;22447;44.530;18.620;2022-08-21T15:47:02;13.00;;;7.28;;
36415;SDS011;22447;44.530;18.620;2022-08-21T15:49:37;15.32;;;7.00;;
36415;SDS011;22447;44.530;18.620;2022-08-21T15:52:03;13.02;;;7.22;;
36415;SDS011;22447;44.530;18.620;2022-08-21T15:54:29;10.30;;;7.18;;
36415;SDS011;22447;44.530;18.620;2022-08-21T15:56:55;12.07;;;7.30;;
36415;SDS011;22447;44.530;18.620;2022-08-21T15:59:21;13.95;;;7.30;;
36415;SDS011;22447;44.530;18.620;2022-08-21T16:01:51;12.90;;;7.57;;
36415;SDS011;22447;44.530;18.620;2022-08-21T16:04:22;22.20;;;7.63;;
36415;SDS011;22447;44.530;18.620;2022-08-21T16:06:52;12.05;;;7.70;;
36415;SDS011;22447;44.530;18.620;2022-08-21T16:09:19;18.17;;;7.68;;
36415;SDS011;22447;44.530;18.620;2022-08-21T16:11:46;16.67;;;7.82;;
36415;SDS011;22447;44.530;18.620;2022-08-21T16:14:12;15.45;;;8.88;;
36415;SDS011;22447;44.530;18.620;2022-08-21T16:16:40;12.48;;;8.23;;
36415;SDS011;22447;44.530;18.620;2022-08-21T16:19:06;16.75;;;8.40;;